Time;durP1;ratioP1;P1;durP2;ratioP2;P2;SDS_P1;SDS_P2;PMS_P1;PMS_P2;Temp;Humidity;BMP_temperature;BMP_pressure;BME280_temperature;BME280_humidity;BME280_pressure;Samples;Min_cycle;Max_cycle;Signal;HPM_P1;HPM_P2
2022/10/27 00:02:04;;;;;;;7.40;6.63;;;;;;;;;;5114099;28;20537;-56
2022/10/27 00:04:31;;;;;;;7.40;6.70;;;;;;;;;;5114014;28;20457;-56
2022/10/27 00:06:58;;;;;;;6.67;5.90;;;;;;;;;;5113918;28;20477;-56
2022/10/27 00:09:26;;;;;;;7.68;6.55;;;;;;;;;;5113934;28;20471;-56
2022/10/27 00:11:55;;;;;;;10.73;6.10;;;;;;;;;;5114065;28;20188;-54
2022/10/27 00:14:21;;;;;;;6.20;5.60;;;;;;;;;;5113744;28;20445;-54
2022/10/27 00:16:52;;;;;;;8.07;5.20;;;;;;;;;;5113897;28;20453;-56
2022/10/27 00:19:21;;;;;;;6.77;5.40;;;;;;;;;;5113758;28;20453;-51
2022/10/27 00:21:49;;;;;;;6.43;5.80;;;;;;;;;;5113842;28;21012;-51
2022/10/27 00:24:17;;;;;;;6.83;5.20;;;;;;;;;;5113874;28;20450;-52
2022/10/27 00:26:45;;;;;;;4.60;4.30;;;;;;;;;;5113528;28;20488;-55
2022/10/27 00:29:12;;;;;;;5.60;4.87;;;;;;;;;;5113387;28;20601;-56
2022/10/27 00:31:39;;;;;;;5.97;5.10;;;;;;;;;;5113663;28;20592;-56
2022/10/27 00:34:06;;;;;;;5.63;5.13;;;;;;;;;;5113527;28;20477;-56
2022/10/27 00:36:33;;;;;;;5.23;4.70;;;;;;;;;;5113318;28;20442;-56
2022/10/27 00:39:00;;;;;;;6.72;4.95;;;;;;;;;;5113699;28;20820;-56
2022/10/27 00:41:29;;;;;;;7.93;4.83;;;;;;;;;;5113565;28;20188;-56
2022/10/27 00:43:57;;;;;;;5.10;4.70;;;;;;;;;;5113387;28;20544;-57
2022/10/27 00:46:28;;;;;;;5.28;4.78;;;;;;;;;;5113316;28;20477;-56
2022/10/27 00:48:57;;;;;;;5.30;4.60;;;;;;;;;;5113342;28;20256;-57
2022/10/27 00:51:24;;;;;;;4.40;4.03;;;;;;;;;;5113533;28;20804;-51
2022/10/27 00:53:51;;;;;;;6.03;4.87;;;;;;;;;;5113404;28;20538;-52
2022/10/27 00:56:19;;;;;;;4.60;4.30;;;;;;;;;;5113301;28;20451;-52
2022/10/27 00:58:46;;;;;;;5.47;3.97;;;;;;;;;;5113175;28;20937;-52
2022/10/27 01:01:16;;;;;;;4.47;4.07;;;;;;;;;;5113200;28;20531;-56
2022/10/27 01:03:44;;;;;;;4.37;4.07;;;;;;;;;;5113122;28;20450;-54
2022/10/27 01:06:11;;;;;;;4.50;4.17;;;;;;;;;;5113393;28;20473;-56
2022/10/27 01:08:39;;;;;;;6.03;5.47;;;;;;;;;;5113406;28;20445;-55
2022/10/27 01:11:06;;;;;;;4.60;4.20;;;;;;;;;;5113358;28;20548;-55
2022/10/27 01:13:33;;;;;;;5.27;4.77;;;;;;;;;;5113404;28;20448;-57
2022/10/27 01:16:06;;;;;;;4.80;4.47;;;;;;;;;;5113254;28;20541;-56
2022/10/27 01:18:41;;;;;;;4.30;4.00;;;;;;;;;;5113403;28;20545;-56
2022/10/27 01:21:17;;;;;;;5.00;4.60;;;;;;;;;;5113482;28;20969;-55
2022/10/27 01:23:53;;;;;;;4.63;3.93;;;;;;;;;;5113109;28;20473;-56
2022/10/27 01:26:39;;;;;;;4.90;4.40;;;;;;;;;;5112863;28;20478;-56
2022/10/27 01:29:20;;;;;;;5.17;4.67;;;;;;;;;;5113131;28;20536;-57
2022/10/27 01:31:50;;;;;;;4.57;4.17;;;;;;;;;;5113103;28;20445;-56
2022/10/27 01:34:20;;;;;;;5.00;4.50;;;;;;;;;;5112953;28;20914;-56
2022/10/27 01:36:50;;;;;;;5.13;4.77;;;;;;;;;;5113093;28;20865;-56
2022/10/27 01:39:18;;;;;;;5.20;4.80;;;;;;;;;;5115176;28;20532;-56
2022/10/27 01:41:49;;;;;;;6.37;5.77;;;;;;;;;;5117131;28;20448;-56
2022/10/27 01:44:19;;;;;;;4.75;4.40;;;;;;;;;;5116945;28;20452;-51
2022/10/27 01:46:48;;;;;;;7.90;4.67;;;;;;;;;;5116427;28;20697;-51
2022/10/27 01:49:16;;;;;;;5.07;4.47;;;;;;;;;;5116625;28;20448;-54
2022/10/27 01:51:43;;;;;;;7.70;4.93;;;;;;;;;;5116752;28;20536;-57
2022/10/27 01:54:10;;;;;;;6.57;5.43;;;;;;;;;;5116494;28;20452;-54
2022/10/27 01:56:46;;;;;;;5.70;5.20;;;;;;;;;;5116477;28;20183;-55
2022/10/27 01:59:27;;;;;;;4.60;4.20;;;;;;;;;;5116385;28;20441;-51
2022/10/27 02:02:00;;;;;;;8.53;4.87;;;;;;;;;;5116167;28;20944;-51
2022/10/27 02:04:32;;;;;;;5.13;4.50;;;;;;;;;;5116515;28;20809;-52
2022/10/27 02:07:01;;;;;;;8.13;5.50;;;;;;;;;;5116364;28;20487;-54
2022/10/27 02:09:34;;;;;;;6.10;4.53;;;;;;;;;;5116266;28;20460;-54
2022/10/27 02:12:02;;;;;;;7.80;5.53;;;;;;;;;;5116393;28;20524;-50
2022/10/27 02:14:29;;;;;;;5.93;4.80;;;;;;;;;;5116419;28;20536;-55
2022/10/27 02:16:57;;;;;;;5.50;5.10;;;;;;;;;;5116264;28;20188;-51
2022/10/27 02:19:27;;;;;;;9.73;4.87;;;;;;;;;;5116159;28;20450;-51
2022/10/27 02:21:57;;;;;;;4.93;4.53;;;;;;;;;;5116072;28;20450;-55
2022/10/27 02:24:25;;;;;;;6.10;5.63;;;;;;;;;;5116060;28;20195;-56
2022/10/27 02:26:53;;;;;;;6.50;6.00;;;;;;;;;;5115736;28;20484;-56
2022/10/27 02:29:22;;;;;;;6.10;5.57;;;;;;;;;;5116070;28;20545;-55
2022/10/27 02:31:49;;;;;;;9.87;6.00;;;;;;;;;;5116194;28;20804;-56
2022/10/27 02:34:18;;;;;;;7.07;5.90;;;;;;;;;;5115908;28;20460;-56
2022/10/27 02:36:46;;;;;;;6.10;5.37;;;;;;;;;;5115730;28;20449;-51
2022/10/27 02:39:14;;;;;;;7.30;6.23;;;;;;;;;;5115771;28;20468;-50
2022/10/27 02:41:41;;;;;;;13.70;6.53;;;;;;;;;;5115537;28;20501;-52
2022/10/27 02:44:09;;;;;;;6.53;5.73;;;;;;;;;;5115720;28;20445;-50
2022/10/27 02:46:36;;;;;;;9.80;6.53;;;;;;;;;;5115372;28;20473;-50
2022/10/27 02:49:03;;;;;;;6.60;6.00;;;;;;;;;;5115443;28;20783;-53
2022/10/27 02:51:30;;;;;;;10.85;6.35;;;;;;;;;;5114838;28;20488;-51
2022/10/27 02:53:57;;;;;;;9.50;6.93;;;;;;;;;;5115357;28;20198;-51
2022/10/27 02:56:25;;;;;;;10.20;7.70;;;;;;;;;;5115580;28;21076;-51
2022/10/27 02:58:52;;;;;;;17.90;8.10;;;;;;;;;;5115427;28;20628;-50
2022/10/27 03:01:19;;;;;;;11.80;7.27;;;;;;;;;;5115583;28;20448;-51
2022/10/27 03:03:46;;;;;;;7.17;6.50;;;;;;;;;;5115196;28;21021;-51
2022/10/27 03:06:12;;;;;;;13.23;7.07;;;;;;;;;;5115102;28;20466;-51
2022/10/27 03:08:39;;;;;;;8.93;7.57;;;;;;;;;;5115140;28;20594;-52
2022/10/27 03:11:06;;;;;;;9.57;7.20;;;;;;;;;;5115415;28;20456;-51
2022/10/27 03:13:36;;;;;;;9.43;7.00;;;;;;;;;;5115204;28;20827;-52
2022/10/27 03:16:03;;;;;;;7.60;6.80;;;;;;;;;;5115342;28;20210;-51
2022/10/27 03:18:30;;;;;;;6.43;5.93;;;;;;;;;;5114983;28;20458;-50
2022/10/27 03:20:57;;;;;;;7.30;6.17;;;;;;;;;;5114890;28;20857;-52
2022/10/27 03:23:24;;;;;;;12.43;6.53;;;;;;;;;;5115050;28;20441;-50
2022/10/27 03:25:51;;;;;;;9.93;6.93;;;;;;;;;;5114895;28;20788;-53
2022/10/27 03:28:18;;;;;;;6.87;6.20;;;;;;;;;;5114821;28;20529;-50
2022/10/27 03:30:46;;;;;;;8.07;7.37;;;;;;;;;;5114771;28;20530;-52
2022/10/27 03:33:13;;;;;;;6.75;5.35;;;;;;;;;;5115133;28;20442;-52
2022/10/27 03:35:39;;;;;;;6.50;5.87;;;;;;;;;;5114579;28;20677;-50
2022/10/27 03:38:07;;;;;;;6.33;5.83;;;;;;;;;;5114864;28;20486;-52
2022/10/27 03:40:34;;;;;;;7.67;6.17;;;;;;;;;;5114605;28;20477;-52
2022/10/27 03:43:01;;;;;;;10.30;6.50;;;;;;;;;;5114428;28;20463;-52
2022/10/27 03:45:30;;;;;;;6.80;5.88;;;;;;;;;;5114445;28;20540;-51
2022/10/27 03:48:02;;;;;;;6.83;6.23;;;;;;;;;;5114258;28;20578;-55
2022/10/27 03:50:29;;;;;;;6.33;5.70;;;;;;;;;;5114554;28;20481;-53
2022/10/27 03:52:56;;;;;;;7.67;6.97;;;;;;;;;;5114401;28;20446;-51
2022/10/27 03:55:23;;;;;;;7.70;6.57;;;;;;;;;;5114324;28;20473;-52
2022/10/27 03:57:50;;;;;;;7.17;6.40;;;;;;;;;;5114226;28;20449;-53
2022/10/27 04:00:18;;;;;;;7.13;6.20;;;;;;;;;;5114198;28;20448;-54
2022/10/27 04:02:45;;;;;;;6.07;5.50;;;;;;;;;;5113111;28;20537;-53
2022/10/27 04:05:13;;;;;;;7.27;6.60;;;;;;;;;;5114131;28;20540;-51
2022/10/27 04:07:40;;;;;;;6.80;6.20;;;;;;;;;;5114036;28;20488;-54
2022/10/27 04:10:07;;;;;;;6.93;6.20;;;;;;;;;;5113997;28;20876;-51
2022/10/27 04:12:36;;;;;;;7.30;6.70;;;;;;;;;;5113953;28;20442;-56
2022/10/27 04:15:03;;;;;;;7.13;6.53;;;;;;;;;;5113951;28;20446;-54
2022/10/27 04:17:30;;;;;;;7.13;6.50;;;;;;;;;;5113793;28;20793;-52
2022/10/27 04:19:56;;;;;;;12.00;5.87;;;;;;;;;;5113906;28;20454;-53
2022/10/27 04:22:25;;;;;;;7.83;7.03;;;;;;;;;;5114544;28;20452;-52
2022/10/27 04:24:51;;;;;;;6.70;5.67;;;;;;;;;;5113632;28;20967;-51
2022/10/27 04:27:20;;;;;;;7.00;5.70;;;;;;;;;;5114385;28;20491;-52
2022/10/27 04:29:47;;;;;;;6.13;5.63;;;;;;;;;;5113597;28;20446;-51
2022/10/27 04:32:16;;;;;;;6.10;5.60;;;;;;;;;;5113742;28;20446;-51
2022/10/27 04:34:43;;;;;;;9.77;5.70;;;;;;;;;;5113682;28;20437;-51
2022/10/27 04:37:10;;;;;;;17.57;6.47;;;;;;;;;;5113543;28;20441;-51
2022/10/27 04:39:38;;;;;;;7.17;5.83;;;;;;;;;;5113682;28;20953;-54
2022/10/27 04:42:05;;;;;;;9.30;5.87;;;;;;;;;;5113351;28;20816;-52
2022/10/27 04:44:32;;;;;;;7.90;6.67;;;;;;;;;;5113313;28;20448;-51
2022/10/27 04:46:59;;;;;;;8.27;7.37;;;;;;;;;;5113200;28;20836;-50
2022/10/27 04:49:26;;;;;;;8.63;7.13;;;;;;;;;;5113500;28;20449;-52
2022/10/27 04:51:53;;;;;;;7.47;6.37;;;;;;;;;;5113371;28;20449;-55
2022/10/27 04:54:19;;;;;;;7.47;6.40;;;;;;;;;;5113340;28;20477;-52
2022/10/27 04:56:49;;;;;;;7.40;6.60;;;;;;;;;;5113135;28;20450;-49
2022/10/27 04:59:16;;;;;;;6.72;6.05;;;;;;;;;;5113614;28;20445;-50
2022/10/27 05:01:43;;;;;;;7.00;6.30;;;;;;;;;;5113350;28;20188;-53
2022/10/27 05:04:10;;;;;;;8.07;6.10;;;;;;;;;;5113202;28;20446;-54
2022/10/27 05:06:37;;;;;;;8.63;7.03;;;;;;;;;;5113045;28;20445;-51
2022/10/27 05:09:04;;;;;;;9.60;7.40;;;;;;;;;;5113263;28;20889;-57
2022/10/27 05:11:31;;;;;;;10.73;8.00;;;;;;;;;;5113133;28;20488;-56
2022/10/27 05:13:59;;;;;;;7.97;7.03;;;;;;;;;;5114777;28;20452;-56
2022/10/27 05:16:26;;;;;;;11.73;6.53;;;;;;;;;;5117421;28;20441;-56
2022/10/27 05:18:53;;;;;;;8.47;6.77;;;;;;;;;;5117197;28;20446;-55
2022/10/27 05:21:19;;;;;;;11.13;6.00;;;;;;;;;;5117470;28;20451;-56
2022/10/27 05:23:46;;;;;;;9.97;7.80;;;;;;;;;;5117405;28;20441;-55
2022/10/27 05:26:15;;;;;;;11.00;7.27;;;;;;;;;;5117014;28;20471;-54
2022/10/27 05:28:43;;;;;;;7.83;6.97;;;;;;;;;;5117166;28;20841;-53
2022/10/27 05:31:11;;;;;;;7.85;7.15;;;;;;;;;;5117125;28;20518;-55
2022/10/27 05:33:38;;;;;;;8.47;7.57;;;;;;;;;;5117053;28;20198;-50
2022/10/27 05:36:05;;;;;;;12.17;7.37;;;;;;;;;;5116911;28;20445;-54
2022/10/27 05:38:32;;;;;;;10.57;6.93;;;;;;;;;;5116804;28;20455;-56
2022/10/27 05:41:00;;;;;;;7.43;6.80;;;;;;;;;;5116890;28;20453;-55
2022/10/27 05:43:27;;;;;;;8.50;7.70;;;;;;;;;;5116930;28;20928;-57
2022/10/27 05:45:53;;;;;;;11.10;7.53;;;;;;;;;;5116748;28;20452;-53
2022/10/27 05:48:22;;;;;;;8.57;7.57;;;;;;;;;;5116512;28;20568;-54
2022/10/27 05:50:52;;;;;;;8.97;8.03;;;;;;;;;;5116668;28;20800;-56
2022/10/27 05:53:18;;;;;;;9.33;8.30;;;;;;;;;;5117112;28;20445;-55
2022/10/27 05:55:45;;;;;;;16.10;11.20;;;;;;;;;;5116707;28;20878;-56
2022/10/27 05:58:12;;;;;;;14.03;8.63;;;;;;;;;;5116616;28;20532;-53
2022/10/27 06:00:39;;;;;;;9.57;8.65;;;;;;;;;;5116510;28;20475;-56
2022/10/27 06:03:08;;;;;;;13.47;10.90;;;;;;;;;;5116359;28;20188;-53
2022/10/27 06:05:39;;;;;;;14.15;12.40;;;;;;;;;;5116214;28;20452;-53
2022/10/27 06:08:06;;;;;;;17.10;15.30;;;;;;;;;;5116121;28;20212;-54
2022/10/27 06:10:32;;;;;;;20.90;18.70;;;;;;;;;;5116424;28;20805;-55
2022/10/27 06:13:02;;;;;;;17.30;15.50;;;;;;;;;;5116207;28;20451;-56
2022/10/27 06:15:29;;;;;;;16.67;15.07;;;;;;;;;;5116096;28;20861;-55
2022/10/27 06:17:56;;;;;;;19.47;17.27;;;;;;;;;;5115952;28;20216;-56
2022/10/27 06:20:24;;;;;;;25.13;14.40;;;;;;;;;;5116144;28;20445;-52
2022/10/27 06:22:52;;;;;;;15.63;13.10;;;;;;;;;;5116115;28;20445;-53
2022/10/27 06:25:19;;;;;;;14.90;11.20;;;;;;;;;;5114938;28;20459;-55
2022/10/27 06:27:46;;;;;;;13.17;9.73;;;;;;;;;;5115874;28;20477;-55
2022/10/27 06:30:13;;;;;;;16.83;9.97;;;;;;;;;;5115788;28;20976;-56
2022/10/27 06:32:40;;;;;;;12.35;9.77;;;;;;;;;;5115603;28;20446;-57
2022/10/27 06:35:07;;;;;;;11.50;9.93;;;;;;;;;;5116089;28;20253;-57
2022/10/27 06:37:34;;;;;;;10.37;9.43;;;;;;;;;;5115774;28;20445;-56
2022/10/27 06:40:04;;;;;;;10.57;9.30;;;;;;;;;;5115810;28;20446;-54
2022/10/27 06:42:31;;;;;;;11.63;9.57;;;;;;;;;;5115713;28;20446;-57
2022/10/27 06:44:58;;;;;;;12.23;8.48;;;;;;;;;;5115475;28;20471;-57
2022/10/27 06:47:25;;;;;;;9.80;8.80;;;;;;;;;;5115345;28;20746;-56
2022/10/27 06:49:52;;;;;;;10.07;7.17;;;;;;;;;;5115623;28;20449;-57
2022/10/27 06:52:19;;;;;;;15.10;7.20;;;;;;;;;;5115372;28;20933;-57
2022/10/27 06:54:45;;;;;;;7.60;6.90;;;;;;;;;;5115414;28;20485;-56
2022/10/27 06:57:14;;;;;;;8.03;7.33;;;;;;;;;;5115231;28;20477;-54
2022/10/27 06:59:40;;;;;;;9.63;6.45;;;;;;;;;;5115263;28;20449;-55
2022/10/27 07:02:07;;;;;;;10.40;6.97;;;;;;;;;;5115110;28;20624;-56
2022/10/27 07:04:34;;;;;;;7.73;6.40;;;;;;;;;;5115271;28;20541;-52
2022/10/27 07:07:01;;;;;;;9.13;7.47;;;;;;;;;;5115491;28;20442;-56
2022/10/27 07:09:28;;;;;;;10.05;8.43;;;;;;;;;;5115133;28;20488;-54
2022/10/27 07:11:55;;;;;;;8.00;7.20;;;;;;;;;;5115036;28;20663;-53
2022/10/27 07:14:23;;;;;;;9.55;7.75;;;;;;;;;;5115030;28;20540;-54
2022/10/27 07:16:50;;;;;;;10.30;6.40;;;;;;;;;;5115177;28;20279;-55
2022/10/27 07:19:17;;;;;;;7.80;7.10;;;;;;;;;;5115053;28;20452;-55
2022/10/27 07:21:44;;;;;;;7.23;6.23;;;;;;;;;;5114978;28;20808;-53
2022/10/27 07:24:11;;;;;;;8.23;6.97;;;;;;;;;;5114640;28;20532;-56
2022/10/27 07:26:37;;;;;;;9.77;7.40;;;;;;;;;;5114685;28;20540;-60
2022/10/27 07:29:04;;;;;;;8.50;6.97;;;;;;;;;;5114117;28;20477;-55
2022/10/27 07:43:19;;;;;;;13.47;9.23;;;;;;;;;;3088260;22;22655;-64
2022/10/27 07:45:46;;;;;;;11.02;9.77;;;;;;;;;;5014077;28;20512;-62
2022/10/27 07:48:14;;;;;;;9.93;8.93;;;;;;;;;;5014339;28;20622;-62
2022/10/27 07:50:41;;;;;;;19.40;12.70;;;;;;;;;;5011913;28;20442;-64
2022/10/27 07:53:08;;;;;;;15.60;10.60;;;;;;;;;;5012203;28;20544;-64
2022/10/27 07:55:35;;;;;;;11.70;10.10;;;;;;;;;;5011992;28;20458;-65
2022/10/27 07:58:04;;;;;;;9.60;8.63;;;;;;;;;;5013455;28;20611;-62
2022/10/27 08:00:34;;;;;;;13.03;10.40;;;;;;;;;;5013754;28;20450;-58
2022/10/27 08:03:02;;;;;;;14.00;10.00;;;;;;;;;;5013921;28;20501;-62
2022/10/27 08:05:29;;;;;;;14.57;10.23;;;;;;;;;;5013446;28;20537;-62
2022/10/27 08:07:59;;;;;;;12.18;9.27;;;;;;;;;;5013282;28;20482;-62
2022/10/27 08:10:26;;;;;;;12.95;9.60;;;;;;;;;;5012760;28;20262;-67
2022/10/27 08:12:53;;;;;;;10.63;9.10;;;;;;;;;;5013145;28;20215;-69
2022/10/27 08:15:20;;;;;;;9.47;8.50;;;;;;;;;;5013189;28;20482;-65
2022/10/27 08:17:52;;;;;;;9.00;8.10;;;;;;;;;;5012642;28;20537;-62
2022/10/27 08:20:19;;;;;;;7.87;7.23;;;;;;;;;;5013160;28;20642;-65
2022/10/27 08:22:46;;;;;;;8.03;6.93;;;;;;;;;;5013035;28;20880;-69
2022/10/27 08:25:13;;;;;;;7.83;7.20;;;;;;;;;;5013449;28;20450;-62
2022/10/27 08:27:40;;;;;;;8.97;7.47;;;;;;;;;;5013560;28;20461;-64
2022/10/27 08:30:09;;;;;;;9.23;7.60;;;;;;;;;;5013194;28;20537;-61
2022/10/27 08:32:36;;;;;;;12.70;8.20;;;;;;;;;;5013069;28;20454;-63
2022/10/27 08:35:07;;;;;;;8.40;7.40;;;;;;;;;;5012928;28;20456;-65
2022/10/27 08:37:34;;;;;;;11.90;8.57;;;;;;;;;;5012860;28;20460;-66
2022/10/27 08:40:00;;;;;;;10.20;8.07;;;;;;;;;;5013478;28;20808;-62
2022/10/27 08:42:38;;;;;;;8.90;8.00;;;;;;;;;;5012790;28;20541;-62
2022/10/27 08:45:09;;;;;;;12.07;7.80;;;;;;;;;;5011607;28;20484;-63
2022/10/27 08:47:36;;;;;;;8.57;7.97;;;;;;;;;;5012681;28;20524;-62
2022/10/27 08:50:05;;;;;;;13.40;8.40;;;;;;;;;;5012313;28;20481;-66
2022/10/27 08:52:34;;;;;;;10.03;8.13;;;;;;;;;;5013003;28;20537;-63
2022/10/27 08:55:03;;;;;;;7.77;6.97;;;;;;;;;;5013304;28;20454;-63
2022/10/27 08:57:33;;;;;;;12.70;7.40;;;;;;;;;;5013089;28;20540;-59
2022/10/27 09:00:00;;;;;;;8.73;7.87;;;;;;;;;;5013016;28;20524;-61
2022/10/27 09:02:50;;;;;;;7.87;6.67;;;;;;;;;;5012919;28;20541;-64
2022/10/27 09:05:23;;;;;;;9.47;8.17;;;;;;;;;;5013135;28;20481;-66
2022/10/27 09:07:55;;;;;;;7.55;6.95;;;;;;;;;;5013063;28;20450;-67
2022/10/27 09:10:29;;;;;;;7.50;6.77;;;;;;;;;;5013475;28;20484;-64
2022/10/27 09:13:02;;;;;;;8.53;7.10;;;;;;;;;;5012758;28;20552;-67
2022/10/27 09:15:34;;;;;;;6.70;6.10;;;;;;;;;;5012896;28;20562;-58
2022/10/27 09:18:03;;;;;;;7.03;6.40;;;;;;;;;;5012375;28;20461;-60
2022/10/27 09:20:34;;;;;;;7.30;6.50;;;;;;;;;;5012590;28;20542;-60
2022/10/27 09:23:02;;;;;;;7.43;6.30;;;;;;;;;;5012197;28;20449;-60
2022/10/27 09:25:30;;;;;;;8.20;6.20;;;;;;;;;;5012542;28;20925;-62
2022/10/27 09:27:59;;;;;;;6.97;6.40;;;;;;;;;;5012287;28;20545;-62
2022/10/27 09:30:26;;;;;;;9.23;6.53;;;;;;;;;;5012759;28;20537;-62
2022/10/27 09:32:55;;;;;;;7.07;6.47;;;;;;;;;;5012743;28;20532;-61
2022/10/27 09:35:24;;;;;;;6.07;5.47;;;;;;;;;;5012822;28;20867;-62
2022/10/27 09:37:52;;;;;;;8.03;4.80;;;;;;;;;;5012513;28;20967;-62
2022/10/27 09:40:21;;;;;;;9.30;5.60;;;;;;;;;;5012881;28;20545;-62
2022/10/27 09:42:49;;;;;;;5.40;4.90;;;;;;;;;;5012671;28;20510;-62
2022/10/27 09:45:17;;;;;;;4.43;4.07;;;;;;;;;;5012347;28;21048;-62
2022/10/27 09:47:46;;;;;;;5.73;5.13;;;;;;;;;;5012816;28;20282;-62
2022/10/27 09:50:17;;;;;;;7.90;5.32;;;;;;;;;;5012300;28;20486;-61
2022/10/27 09:52:45;;;;;;;8.73;4.67;;;;;;;;;;5012733;28;20194;-62
2022/10/27 09:55:13;;;;;;;3.80;3.50;;;;;;;;;;5012640;28;20446;-62
2022/10/27 09:57:41;;;;;;;6.77;4.70;;;;;;;;;;5012644;28;20529;-62
2022/10/27 10:00:09;;;;;;;8.57;5.07;;;;;;;;;;5012533;28;20476;-61
2022/10/27 10:02:39;;;;;;;4.97;4.57;;;;;;;;;;5016010;28;20532;-61
2022/10/27 10:05:09;;;;;;;5.82;4.72;;;;;;;;;;5016207;28;20457;-62
2022/10/27 10:07:38;;;;;;;8.60;5.07;;;;;;;;;;5015739;28;20188;-66
2022/10/27 10:10:08;;;;;;;5.23;4.73;;;;;;;;;;5015316;28;20513;-69
2022/10/27 10:12:36;;;;;;;8.10;4.20;;;;;;;;;;5015606;28;20537;-61
2022/10/27 10:15:23;;;;;;;5.63;3.73;;;;;;;;;;5015752;28;21028;-61
2022/10/27 10:17:54;;;;;;;5.70;4.10;;;;;;;;;;5011201;28;20461;-65
2022/10/27 10:20:31;;;;;;;3.93;3.63;;;;;;;;;;5015383;28;20537;-63
2022/10/27 10:22:58;;;;;;;4.47;3.20;;;;;;;;;;4996311;28;20791;-63
2022/10/27 10:25:27;;;;;;;4.93;3.40;;;;;;;;;;4996028;28;20956;-62
2022/10/27 10:27:59;;;;;;;4.90;3.60;;;;;;;;;;4995900;28;20458;-60
2022/10/27 10:30:26;;;;;;;7.50;3.70;;;;;;;;;;4997397;28;20519;-67
2022/10/27 10:32:56;;;;;;;5.18;3.30;;;;;;;;;;5015203;28;20553;-60
2022/10/27 10:35:43;;;;;;;8.97;3.90;;;;;;;;;;5015455;28;20199;-60
2022/10/27 10:38:26;;;;;;;7.53;3.80;;;;;;;;;;5015598;28;20497;-62
2022/10/27 10:40:57;;;;;;;5.97;3.87;;;;;;;;;;5015605;28;20808;-60
2022/10/27 10:43:25;;;;;;;6.20;3.20;;;;;;;;;;5015322;28;20474;-59
2022/10/27 10:45:52;;;;;;;6.97;3.40;;;;;;;;;;5015350;28;20672;-62
2022/10/27 10:48:24;;;;;;;3.57;2.97;;;;;;;;;;5014915;28;20457;-63
2022/10/27 10:50:51;;;;;;;3.93;3.00;;;;;;;;;;5012531;28;20565;-62
2022/10/27 10:53:21;;;;;;;6.27;4.30;;;;;;;;;;5015331;28;20834;-63
2022/10/27 10:55:48;;;;;;;9.93;3.30;;;;;;;;;;5015032;28;20449;-61
2022/10/27 10:58:16;;;;;;;4.67;3.27;;;;;;;;;;5015046;28;20445;-69
2022/10/27 11:00:53;;;;;;;3.97;2.80;;;;;;;;;;5014302;28;20442;-67
2022/10/27 11:03:21;;;;;;;7.43;3.20;;;;;;;;;;5014639;28;20717;-63
2022/10/27 11:05:52;;;;;;;3.50;2.80;;;;;;;;;;5014893;28;20475;-62
2022/10/27 11:08:22;;;;;;;3.10;2.80;;;;;;;;;;5014793;28;20969;-63
2022/10/27 11:10:49;;;;;;;3.23;2.23;;;;;;;;;;5014973;28;20900;-63
2022/10/27 11:13:18;;;;;;;5.03;2.80;;;;;;;;;;5014266;28;20456;-63
2022/10/27 11:15:48;;;;;;;3.53;2.80;;;;;;;;;;5014498;28;20891;-60
2022/10/27 11:18:17;;;;;;;3.87;2.43;;;;;;;;;;5014729;28;20450;-60
2022/10/27 11:20:46;;;;;;;6.60;2.40;;;;;;;;;;5014593;28;20460;-61
2022/10/27 11:23:16;;;;;;;2.27;2.07;;;;;;;;;;5014554;28;20533;-60
2022/10/27 11:25:43;;;;;;;8.93;2.87;;;;;;;;;;5014369;28;20886;-61
2022/10/27 11:28:15;;;;;;;2.87;2.13;;;;;;;;;;5014318;28;20630;-62
2022/10/27 11:30:44;;;;;;;8.55;2.30;;;;;;;;;;5014394;28;20581;-62
2022/10/27 11:33:14;;;;;;;4.70;2.30;;;;;;;;;;5014534;28;20621;-62
2022/10/27 11:35:47;;;;;;;4.70;2.10;;;;;;;;;;5014341;28;20521;-64
2022/10/27 11:38:17;;;;;;;6.13;2.43;;;;;;;;;;5014131;28;20454;-62
2022/10/27 11:40:46;;;;;;;5.00;2.03;;;;;;;;;;5014361;28;20450;-61
2022/10/27 11:43:18;;;;;;;4.03;1.87;;;;;;;;;;5013960;28;20454;-59
2022/10/27 11:45:48;;;;;;;4.20;2.40;;;;;;;;;;5013954;28;20540;-59
2022/10/27 11:48:18;;;;;;;3.63;2.47;;;;;;;;;;5013548;28;20450;-59
2022/10/27 11:50:49;;;;;;;7.10;2.57;;;;;;;;;;5013829;28;20572;-59
2022/10/27 11:53:16;;;;;;;3.63;2.47;;;;;;;;;;5014187;28;20497;-59
2022/10/27 11:55:47;;;;;;;2.15;1.98;;;;;;;;;;5013966;28;20450;-59
2022/10/27 11:58:21;;;;;;;5.60;2.40;;;;;;;;;;5014078;28;20201;-59
2022/10/27 12:00:54;;;;;;;3.00;2.13;;;;;;;;;;5013969;28;20866;-62
2022/10/27 12:03:29;;;;;;;6.97;2.23;;;;;;;;;;5013951;28;20542;-62
2022/10/27 12:06:00;;;;;;;3.80;1.80;;;;;;;;;;5013938;28;20544;-59
2022/10/27 12:08:32;;;;;;;3.23;2.80;;;;;;;;;;5013928;28;21015;-59
2022/10/27 12:11:07;;;;;;;4.47;2.23;;;;;;;;;;5013702;28;20909;-59
2022/10/27 12:13:39;;;;;;;3.53;2.23;;;;;;;;;;5013554;28;20544;-59
2022/10/27 12:16:09;;;;;;;3.00;1.57;;;;;;;;;;5013626;28;20543;-59
2022/10/27 12:18:38;;;;;;;6.30;4.20;;;;;;;;;;5013719;28;20542;-60
2022/10/27 12:21:10;;;;;;;3.30;1.87;;;;;;;;;;5013679;28;20454;-59
2022/10/27 12:23:40;;;;;;;4.23;2.07;;;;;;;;;;5012934;28;20937;-59
2022/10/27 12:26:10;;;;;;;6.97;2.40;;;;;;;;;;5013144;28;21012;-59
2022/10/27 12:28:37;;;;;;;3.83;1.90;;;;;;;;;;5013097;28;20187;-59
2022/10/27 12:31:07;;;;;;;3.53;1.70;;;;;;;;;;5013428;28;20568;-59
2022/10/27 12:33:37;;;;;;;3.77;2.10;;;;;;;;;;5013448;28;20493;-59
2022/10/27 12:36:08;;;;;;;2.70;1.70;;;;;;;;;;5013213;28;20454;-59
2022/10/27 12:38:41;;;;;;;4.30;2.30;;;;;;;;;;5013313;28;20461;-59
2022/10/27 12:41:13;;;;;;;4.83;1.80;;;;;;;;;;5013289;28;20489;-59
2022/10/27 12:43:43;;;;;;;2.42;1.80;;;;;;;;;;5013120;28;20482;-59
2022/10/27 12:46:20;;;;;;;2.20;1.63;;;;;;;;;;5013578;28;20622;-59
2022/10/27 12:48:50;;;;;;;2.00;1.80;;;;;;;;;;5013253;28;20598;-59
2022/10/27 12:51:23;;;;;;;3.03;2.20;;;;;;;;;;5012933;28;20486;-59
2022/10/27 12:53:54;;;;;;;4.83;1.67;;;;;;;;;;5013156;28;20472;-59
2022/10/27 12:56:28;;;;;;;2.23;1.73;;;;;;;;;;5013206;28;20458;-59
2022/10/27 12:58:59;;;;;;;1.83;1.63;;;;;;;;;;5013227;28;20458;-59
2022/10/27 13:01:33;;;;;;;3.20;1.73;;;;;;;;;;5012995;28;20904;-59
2022/10/27 13:04:29;;;;;;;2.45;1.58;;;;;;;;;;5012888;28;20537;-59
2022/10/27 13:07:04;;;;;;;2.83;1.93;;;;;;;;;;5012975;28;20202;-59
2022/10/27 13:09:48;;;;;;;5.57;1.90;;;;;;;;;;5012998;28;20782;-59
2022/10/27 13:12:23;;;;;;;6.25;1.90;;;;;;;;;;5012874;28;20450;-60
2022/10/27 13:15:09;;;;;;;4.90;2.00;;;;;;;;;;5013072;28;20261;-60
2022/10/27 13:17:40;;;;;;;2.03;1.80;;;;;;;;;;5012824;28;20508;-59
2022/10/27 13:20:10;;;;;;;2.63;2.40;;;;;;;;;;5012807;28;20473;-59
2022/10/27 13:22:40;;;;;;;5.80;2.10;;;;;;;;;;5012682;28;20546;-59
2022/10/27 13:25:15;;;;;;;2.53;1.80;;;;;;;;;;5012625;28;20808;-59
2022/10/27 13:27:44;;;;;;;2.03;1.80;;;;;;;;;;5012842;28;20458;-59
2022/10/27 13:30:16;;;;;;;4.33;2.20;;;;;;;;;;5012750;28;20532;-59
2022/10/27 13:32:52;;;;;;;2.60;1.43;;;;;;;;;;5012746;28;20512;-60
2022/10/27 13:35:32;;;;;;;3.13;1.90;;;;;;;;;;5014625;28;20466;-59
2022/10/27 13:38:17;;;;;;;3.90;1.50;;;;;;;;;;5016724;28;20478;-59
2022/10/27 13:40:45;;;;;;;2.67;1.83;;;;;;;;;;5016880;28;20566;-59
2022/10/27 13:43:33;;;;;;;5.83;1.90;;;;;;;;;;5016508;28;20287;-60
2022/10/27 13:46:00;;;;;;;5.00;1.80;;;;;;;;;;5015864;28;20450;-59
2022/10/27 13:48:32;;;;;;;1.97;1.50;;;;;;;;;;5016714;28;20450;-59
2022/10/27 13:50:59;;;;;;;4.60;1.60;;;;;;;;;;5016659;28;20574;-59
2022/10/27 13:53:32;;;;;;;7.50;1.80;;;;;;;;;;5016342;28;20911;-59
2022/10/27 13:56:01;;;;;;;4.03;2.23;;;;;;;;;;5016253;28;20325;-60
2022/10/27 13:58:34;;;;;;;2.83;1.67;;;;;;;;;;5016147;28;20450;-59
2022/10/27 14:01:20;;;;;;;3.63;1.20;;;;;;;;;;5016134;28;20446;-59
2022/10/27 14:03:59;;;;;;;8.40;2.00;;;;;;;;;;5016165;28;20808;-59
2022/10/27 14:06:31;;;;;;;3.10;1.60;;;;;;;;;;5016077;28;20540;-60
2022/10/27 14:08:59;;;;;;;2.17;1.42;;;;;;;;;;5016222;28;20446;-60
2022/10/27 14:11:29;;;;;;;2.27;1.87;;;;;;;;;;5016070;28;20227;-59
2022/10/27 14:13:57;;;;;;;2.05;1.85;;;;;;;;;;5016505;28;20536;-59
2022/10/27 14:16:25;;;;;;;2.57;1.73;;;;;;;;;;5015931;28;20285;-59
2022/10/27 14:19:00;;;;;;;4.27;1.90;;;;;;;;;;5015809;28;20827;-59
2022/10/27 14:21:28;;;;;;;1.73;1.60;;;;;;;;;;5016018;28;20453;-59
2022/10/27 14:23:55;;;;;;;2.03;1.60;;;;;;;;;;5015888;28;20450;-59
2022/10/27 14:26:23;;;;;;;7.70;2.13;;;;;;;;;;5015931;28;20463;-59
2022/10/27 14:28:51;;;;;;;1.87;1.50;;;;;;;;;;5015740;28;20450;-59
2022/10/27 14:31:20;;;;;;;2.27;2.07;;;;;;;;;;5015577;28;20564;-59
2022/10/27 14:33:47;;;;;;;3.80;1.80;;;;;;;;;;5015537;28;20553;-60
2022/10/27 14:36:17;;;;;;;2.87;2.07;;;;;;;;;;5015800;28;20470;-62
2022/10/27 14:38:44;;;;;;;3.28;1.95;;;;;;;;;;5015838;28;20464;-61
2022/10/27 14:41:16;;;;;;;1.87;1.77;;;;;;;;;;5015466;28;20638;-61
2022/10/27 14:43:44;;;;;;;6.17;2.20;;;;;;;;;;5015231;28;20482;-61
2022/10/27 14:46:17;;;;;;;4.80;2.40;;;;;;;;;;5014930;28;20541;-61
2022/10/27 14:48:44;;;;;;;3.17;2.33;;;;;;;;;;5015557;28;20450;-61
2022/10/27 14:51:12;;;;;;;2.77;2.57;;;;;;;;;;5015368;28;20573;-61
2022/10/27 14:53:41;;;;;;;6.60;2.20;;;;;;;;;;5015215;28;20450;-61
2022/10/27 14:56:16;;;;;;;6.87;2.57;;;;;;;;;;5014998;28;20193;-61
2022/10/27 14:58:49;;;;;;;3.93;2.40;;;;;;;;;;5014967;28;20544;-61
2022/10/27 15:01:20;;;;;;;2.90;2.47;;;;;;;;;;5015545;28;20535;-62
2022/10/27 15:03:47;;;;;;;4.03;2.80;;;;;;;;;;5015141;28;20461;-61
2022/10/27 15:06:16;;;;;;;2.20;2.00;;;;;;;;;;5015411;28;20461;-61